sensor_id;sensor_type;location;lat;lon;timestamp;pressure;altitude;pressure_sealevel;temperature;humidity
10510;BME280;5303;53.266;10.410;2022-07-30T00:01:02;101389.84;;;19.89;100.00
10510;BME280;5303;53.266;10.410;2022-07-30T00:03:27;101388.34;;;19.93;100.00
10510;BME280;5303;53.266;10.410;2022-07-30T00:05:53;101389.56;;;20.04;100.00
10510;BME280;5303;53.266;10.410;2022-07-30T00:08:19;101381.28;;;20.04;100.00
10510;BME280;5303;53.266;10.410;2022-07-30T00:10:44;101386.84;;;19.97;100.00
10510;BME280;5303;53.266;10.410;2022-07-30T00:13:10;101379.84;;;19.95;100.00
10510;BME280;5303;53.266;10.410;2022-07-30T00:15:35;101374.97;;;19.90;100.00
10510;BME280;5303;53.266;10.410;2022-07-30T00:18:01;101378.00;;;19.82;100.00
10510;BME280;5303;53.266;10.410;2022-07-30T00:20:26;101378.34;;;19.92;100.00
10510;BME280;5303;53.266;10.410;2022-07-30T00:22:52;101374.78;;;19.85;100.00
10510;BME280;5303;53.266;10.410;2022-07-30T00:25:17;101377.56;;;19.85;100.00
10510;BME280;5303;53.266;10.410;2022-07-30T00:27:43;101372.81;;;19.92;100.00
10510;BME280;5303;53.266;10.410;2022-07-30T00:30:10;101374.97;;;19.90;100.00
10510;BME280;5303;53.266;10.410;2022-07-30T00:32:36;101369.66;;;19.89;100.00
10510;BME280;5303;53.266;10.410;2022-07-30T00:35:01;101370.06;;;19.92;100.00
10510;BME280;5303;53.266;10.410;2022-07-30T00:37:27;101368.13;;;19.93;100.00
10510;BME280;5303;53.266;10.410;2022-07-30T00:39:52;101367.81;;;19.76;100.00
10510;BME280;5303;53.266;10.410;2022-07-30T00:42:17;101363.94;;;19.84;100.00
10510;BME280;5303;53.266;10.410;2022-07-30T00:44:50;101367.97;;;19.88;100.00
10510;BME280;5303;53.266;10.410;2022-07-30T00:47:15;101373.47;;;19.94;100.00
10510;BME280;5303;53.266;10.410;2022-07-30T00:49:41;101360.53;;;19.88;100.00
10510;BME280;5303;53.266;10.410;2022-07-30T00:52:06;101360.06;;;19.91;100.00
10510;BME280;5303;53.266;10.410;2022-07-30T00:54:31;101369.22;;;19.92;100.00
10510;BME280;5303;53.266;10.410;2022-07-30T00:56:57;101364.31;;;19.94;100.00
10510;BME280;5303;53.266;10.410;2022-07-30T00:59:22;101364.38;;;19.87;100.00
10510;BME280;5303;53.266;10.410;2022-07-30T01:01:47;101361.41;;;19.82;100.00
10510;BME280;5303;53.266;10.410;2022-07-30T01:04:13;101357.56;;;19.83;100.00
10510;BME280;5303;53.266;10.410;2022-07-30T01:06:38;101356.94;;;19.81;100.00
10510;BME280;5303;53.266;10.410;2022-07-30T01:09:04;101358.69;;;19.75;100.00
10510;BME280;5303;53.266;10.410;2022-07-30T01:11:37;101349.34;;;19.70;100.00
10510;BME280;5303;53.266;10.410;2022-07-30T01:14:03;101350.03;;;19.65;100.00
10510;BME280;5303;53.266;10.410;2022-07-30T01:16:30;101352.34;;;19.62;100.00
10510;BME280;5303;53.266;10.410;2022-07-30T01:18:57;101351.06;;;19.64;100.00
10510;BME280;5303;53.266;10.410;2022-07-30T01:21:45;101347.72;;;19.49;100.00
10510;BME280;5303;53.266;10.410;2022-07-30T01:24:29;101349.81;;;19.53;100.00
10510;BME280;5303;53.266;10.410;2022-07-30T01:26:57;101341.56;;;19.47;100.00
10510;BME280;5303;53.266;10.410;2022-07-30T01:29:25;101347.50;;;19.50;100.00
10510;BME280;5303;53.266;10.410;2022-07-30T01:31:53;101354.09;;;19.49;100.00
10510;BME280;5303;53.266;10.410;2022-07-30T01:34:31;101341.78;;;19.39;100.00
10510;BME280;5303;53.266;10.410;2022-07-30T01:36:58;101344.72;;;19.50;100.00
10510;BME280;5303;53.266;10.410;2022-07-30T01:39:25;101336.88;;;19.47;100.00
10510;BME280;5303;53.266;10.410;2022-07-30T01:41:52;101339.59;;;19.54;100.00
10510;BME280;5303;53.266;10.410;2022-07-30T01:44:19;101338.13;;;19.51;100.00
10510;BME280;5303;53.266;10.410;2022-07-30T01:46:46;101340.28;;;19.49;100.00
10510;BME280;5303;53.266;10.410;2022-07-30T01:49:12;101343.22;;;19.54;100.00
10510;BME280;5303;53.266;10.410;2022-07-30T01:51:39;101340.84;;;19.58;100.00
10510;BME280;5303;53.266;10.410;2022-07-30T01:54:09;101341.94;;;19.57;100.00
10510;BME280;5303;53.266;10.410;2022-07-30T01:56:37;101344.06;;;19.62;100.00
10510;BME280;5303;53.266;10.410;2022-07-30T01:59:04;101339.16;;;19.64;100.00
10510;BME280;5303;53.266;10.410;2022-07-30T02:01:31;101337.88;;;19.60;100.00
10510;BME280;5303;53.266;10.410;2022-07-30T02:03:58;101335.13;;;19.60;100.00
10510;BME280;5303;53.266;10.410;2022-07-30T02:06:31;101342.56;;;19.66;100.00
10510;BME280;5303;53.266;10.410;2022-07-30T02:09:00;101345.75;;;19.63;100.00
10510;BME280;5303;53.266;10.410;2022-07-30T02:11:27;101359.16;;;19.66;100.00
10510;BME280;5303;53.266;10.410;2022-07-30T02:14:16;101358.31;;;19.65;100.00
10510;BME280;5303;53.266;10.410;2022-07-30T02:16:48;101359.56;;;19.63;100.00
10510;BME280;5303;53.266;10.410;2022-07-30T02:19:16;101345.75;;;19.63;100.00
10510;BME280;5303;53.266;10.410;2022-07-30T02:21:45;101356.16;;;19.67;100.00
10510;BME280;5303;53.266;10.410;2022-07-30T02:24:14;101356.38;;;19.66;100.00
10510;BME280;5303;53.266;10.410;2022-07-30T02:26:41;101362.53;;;19.61;100.00
10510;BME280;5303;53.266;10.410;2022-07-30T02:29:08;101356.78;;;19.63;100.00
10510;BME280;5303;53.266;10.410;2022-07-30T02:31:36;101362.75;;;19.60;100.00
10510;BME280;5303;53.266;10.410;2022-07-30T02:34:03;101356.16;;;19.61;100.00
10510;BME280;5303;53.266;10.410;2022-07-30T02:36:30;101353.41;;;19.61;100.00
10510;BME280;5303;53.266;10.410;2022-07-30T02:38:57;101367.00;;;19.62;100.00
10510;BME280;5303;53.266;10.410;2022-07-30T02:41:25;101364.88;;;19.58;100.00
10510;BME280;5303;53.266;10.410;2022-07-30T02:43:52;101362.78;;;19.53;100.00
10510;BME280;5303;53.266;10.410;2022-07-30T02:46:20;101362.81;;;19.46;100.00
10510;BME280;5303;53.266;10.410;2022-07-30T02:48:47;101375.59;;;19.41;100.00
10510;BME280;5303;53.266;10.410;2022-07-30T02:51:15;101374.50;;;19.42;100.00
10510;BME280;5303;53.266;10.410;2022-07-30T02:53:46;101371.72;;;19.48;100.00
10510;BME280;5303;53.266;10.410;2022-07-30T02:56:13;101378.13;;;19.49;100.00
10510;BME280;5303;53.266;10.410;2022-07-30T02:58:41;101375.16;;;19.44;100.00
10510;BME280;5303;53.266;10.410;2022-07-30T03:01:09;101369.88;;;19.42;100.00
10510;BME280;5303;53.266;10.410;2022-07-30T03:03:35;101370.88;;;19.48;100.00
10510;BME280;5303;53.266;10.410;2022-07-30T03:06:02;101384.09;;;19.46;100.00
10510;BME280;5303;53.266;10.410;2022-07-30T03:08:30;101380.25;;;19.47;100.00
10510;BME280;5303;53.266;10.410;2022-07-30T03:10:57;101378.16;;;19.42;100.00
10510;BME280;5303;53.266;10.410;2022-07-30T03:13:23;101369.63;;;19.44;100.00
10510;BME280;5303;53.266;10.410;2022-07-30T03:15:50;101373.09;;;19.33;100.00
10510;BME280;5303;53.266;10.410;2022-07-30T03:18:17;101381.81;;;19.29;100.00
10510;BME280;5303;53.266;10.410;2022-07-30T03:20:48;101383.06;;;19.34;100.00
10510;BME280;5303;53.266;10.410;2022-07-30T03:23:16;101375.63;;;19.27;100.00
10510;BME280;5303;53.266;10.410;2022-07-30T03:25:44;101382.44;;;19.25;100.00
10510;BME280;5303;53.266;10.410;2022-07-30T03:28:13;101376.53;;;19.08;100.00
10510;BME280;5303;53.266;10.410;2022-07-30T03:30:38;101384.59;;;19.09;100.00
10510;BME280;5303;53.266;10.410;2022-07-30T03:33:05;101387.56;;;19.15;100.00
10510;BME280;5303;53.266;10.410;2022-07-30T03:35:31;101375.31;;;18.97;100.00
10510;BME280;5303;53.266;10.410;2022-07-30T03:37:57;101385.47;;;18.90;100.00
10510;BME280;5303;53.266;10.410;2022-07-30T03:40:23;101379.75;;;18.92;100.00
10510;BME280;5303;53.266;10.410;2022-07-30T03:42:49;101376.59;;;18.88;100.00
10510;BME280;5303;53.266;10.410;2022-07-30T03:45:15;101375.53;;;18.82;100.00
10510;BME280;5303;53.266;10.410;2022-07-30T03:47:41;101371.06;;;18.81;100.00
10510;BME280;5303;53.266;10.410;2022-07-30T03:50:08;101375.53;;;18.82;100.00
10510;BME280;5303;53.266;10.410;2022-07-30T03:52:36;101374.03;;;18.87;100.00
10510;BME280;5303;53.266;10.410;2022-07-30T03:55:03;101375.75;;;18.88;100.00
10510;BME280;5303;53.266;10.410;2022-07-30T03:57:29;101374.03;;;18.73;100.00
10510;BME280;5303;53.266;10.410;2022-07-30T03:59:54;101367.66;;;18.79;100.00
10510;BME280;5303;53.266;10.410;2022-07-30T04:02:19;101367.25;;;18.82;100.00
10510;BME280;5303;53.266;10.410;2022-07-30T04:04:45;101370.00;;;18.82;100.00
10510;BME280;5303;53.266;10.410;2022-07-30T04:07:10;101362.13;;;18.86;100.00
10510;BME280;5303;53.266;10.410;2022-07-30T04:09:36;101365.53;;;18.88;100.00
10510;BME280;5303;53.266;10.410;2022-07-30T04:12:01;101362.53;;;18.96;100.00
10510;BME280;5303;53.266;10.410;2022-07-30T04:14:38;101363.59;;;19.02;100.00
10510;BME280;5303;53.266;10.410;2022-07-30T04:17:09;101364.66;;;19.07;100.00
10510;BME280;5303;53.266;10.410;2022-07-30T04:19:53;101359.13;;;19.07;100.00
10510;BME280;5303;53.266;10.410;2022-07-30T04:22:26;101372.72;;;19.02;100.00
10510;BME280;5303;53.266;10.410;2022-07-30T04:24:52;101364.88;;;18.93;100.00
10510;BME280;5303;53.266;10.410;2022-07-30T04:27:19;101377.19;;;18.90;100.00
10510;BME280;5303;53.266;10.410;2022-07-30T04:29:45;101367.44;;;18.94;100.00
10510;BME280;5303;53.266;10.410;2022-07-30T04:32:11;101368.88;;;19.03;100.00
10510;BME280;5303;53.266;10.410;2022-07-30T04:34:45;101371.66;;;19.03;100.00
10510;BME280;5303;53.266;10.410;2022-07-30T04:37:10;101369.97;;;18.96;100.00
10510;BME280;5303;53.266;10.410;2022-07-30T04:39:35;101379.31;;;19.08;100.00
10510;BME280;5303;53.266;10.410;2022-07-30T04:42:01;101376.34;;;19.03;100.00
10510;BME280;5303;53.266;10.410;2022-07-30T04:44:26;101371.25;;;19.00;100.00
10510;BME280;5303;53.266;10.410;2022-07-30T04:46:51;101370.81;;;19.03;100.00
10510;BME280;5303;53.266;10.410;2022-07-30T04:49:17;101383.31;;;19.12;100.00
10510;BME280;5303;53.266;10.410;2022-07-30T04:51:45;101382.88;;;19.22;100.00
10510;BME280;5303;53.266;10.410;2022-07-30T04:54:13;101384.16;;;19.19;100.00
10510;BME280;5303;53.266;10.410;2022-07-30T04:56:39;101387.97;;;19.25;100.00
10510;BME280;5303;53.266;10.410;2022-07-30T04:59:05;101384.78;;;19.28;100.00
10510;BME280;5303;53.266;10.410;2022-07-30T05:01:33;101389.03;;;19.30;100.00
10510;BME280;5303;53.266;10.410;2022-07-30T05:04:00;101390.97;;;19.23;100.00
10510;BME280;5303;53.266;10.410;2022-07-30T05:06:27;101387.75;;;19.33;100.00
10510;BME280;5303;53.266;10.410;2022-07-30T05:08:53;101392.84;;;19.36;100.00
10510;BME280;5303;53.266;10.410;2022-07-30T05:11:18;101393.88;;;19.35;100.00
10510;BME280;5303;53.266;10.410;2022-07-30T05:13:47;101394.75;;;19.29;100.00
10510;BME280;5303;53.266;10.410;2022-07-30T05:16:13;101391.34;;;19.34;100.00
10510;BME280;5303;53.266;10.410;2022-07-30T05:18:39;101403.66;;;19.38;100.00
10510;BME280;5303;53.266;10.410;2022-07-30T05:21:05;101395.19;;;19.26;100.00
10510;BME280;5303;53.266;10.410;2022-07-30T05:23:30;101395.19;;;19.26;100.00
10510;BME280;5303;53.266;10.410;2022-07-30T05:25:56;101399.41;;;19.35;100.00
10510;BME280;5303;53.266;10.410;2022-07-30T05:28:21;101396.84;;;19.40;100.00
10510;BME280;5303;53.266;10.410;2022-07-30T05:30:47;101397.91;;;19.46;100.00
10510;BME280;5303;53.266;10.410;2022-07-30T05:33:13;101395.53;;;19.49;100.00
10510;BME280;5303;53.266;10.410;2022-07-30T05:35:38;101403.44;;;19.46;100.00
10510;BME280;5303;53.266;10.410;2022-07-30T05:38:04;101399.56;;;19.53;100.00
10510;BME280;5303;53.266;10.410;2022-07-30T05:40:29;101401.88;;;19.57;100.00
10510;BME280;5303;53.266;10.410;2022-07-30T05:42:54;101396.56;;;19.62;100.00
10510;BME280;5303;53.266;10.410;2022-07-30T05:45:20;101403.53;;;19.71;100.00
10510;BME280;5303;53.266;10.410;2022-07-30T05:47:45;101405.88;;;19.74;100.00
10510;BME280;5303;53.266;10.410;2022-07-30T05:50:10;101401.84;;;19.70;100.00
10510;BME280;5303;53.266;10.410;2022-07-30T05:52:37;101405.44;;;19.77;100.00
10510;BME280;5303;53.266;10.410;2022-07-30T05:55:03;101404.78;;;19.82;100.00
10510;BME280;5303;53.266;10.410;2022-07-30T05:57:28;101402.00;;;19.88;100.00
10510;BME280;5303;53.266;10.410;2022-07-30T05:59:53;101410.25;;;19.95;100.00
10510;BME280;5303;53.266;10.410;2022-07-30T06:02:19;101408.94;;;20.04;100.00
10510;BME280;5303;53.266;10.410;2022-07-30T06:04:44;101406.31;;;20.09;100.00
10510;BME280;5303;53.266;10.410;2022-07-30T06:07:09;101407.63;;;20.07;100.00
10510;BME280;5303;53.266;10.410;2022-07-30T06:09:34;101407.59;;;20.13;100.00
10510;BME280;5303;53.266;10.410;2022-07-30T06:12:00;101416.69;;;20.20;100.00
10510;BME280;5303;53.266;10.410;2022-07-30T06:14:25;101415.69;;;20.08;100.00
10510;BME280;5303;53.266;10.410;2022-07-30T06:16:50;101409.03;;;20.16;100.00
10510;BME280;5303;53.266;10.410;2022-07-30T06:19:16;101413.09;;;20.20;100.00
10510;BME280;5303;53.266;10.410;2022-07-30T06:21:41;101407.47;;;20.33;100.00
10510;BME280;5303;53.266;10.410;2022-07-30T06:24:07;101414.03;;;20.39;100.00
10510;BME280;5303;53.266;10.410;2022-07-30T06:26:33;101418.66;;;20.45;100.00
10510;BME280;5303;53.266;10.410;2022-07-30T06:28:58;101419.50;;;20.45;100.00
10510;BME280;5303;53.266;10.410;2022-07-30T06:31:23;101411.38;;;20.51;100.00
10510;BME280;5303;53.266;10.410;2022-07-30T06:33:48;101414.28;;;20.62;100.00
10510;BME280;5303;53.266;10.410;2022-07-30T06:36:14;101417.63;;;20.71;100.00
10510;BME280;5303;53.266;10.410;2022-07-30T06:38:39;101415.66;;;20.78;100.00
10510;BME280;5303;53.266;10.410;2022-07-30T06:41:04;101418.94;;;20.93;100.00
10510;BME280;5303;53.266;10.410;2022-07-30T06:43:30;101423.03;;;21.09;100.00
10510;BME280;5303;53.266;10.410;2022-07-30T06:45:55;101417.63;;;21.14;100.00
10510;BME280;5303;53.266;10.410;2022-07-30T06:48:20;101421.44;;;21.20;100.00
10510;BME280;5303;53.266;10.410;2022-07-30T06:50:46;101420.97;;;21.23;100.00
10510;BME280;5303;53.266;10.410;2022-07-30T06:53:11;101422.13;;;21.34;100.00
10510;BME280;5303;53.266;10.410;2022-07-30T06:55:36;101423.09;;;21.46;100.00
10510;BME280;5303;53.266;10.410;2022-07-30T06:58:02;101419.56;;;21.57;100.00
10510;BME280;5303;53.266;10.410;2022-07-30T07:00:27;101430.69;;;21.69;100.00
10510;BME280;5303;53.266;10.410;2022-07-30T07:02:52;101425.22;;;21.81;100.00
10510;BME280;5303;53.266;10.410;2022-07-30T07:05:18;101430.22;;;21.91;100.00
10510;BME280;5303;53.266;10.410;2022-07-30T07:07:44;101429.19;;;22.03;100.00
10510;BME280;5303;53.266;10.410;2022-07-30T07:10:09;101423.75;;;22.08;100.00
10510;BME280;5303;53.266;10.410;2022-07-30T07:12:35;101429.19;;;22.22;100.00
10510;BME280;5303;53.266;10.410;2022-07-30T07:15:00;101424.47;;;22.22;100.00
10510;BME280;5303;53.266;10.410;2022-07-30T07:17:26;101428.50;;;22.38;100.00
10510;BME280;5303;53.266;10.410;2022-07-30T07:19:51;101423.91;;;22.44;100.00
10510;BME280;5303;53.266;10.410;2022-07-30T07:22:16;101429.25;;;22.45;100.00
10510;BME280;5303;53.266;10.410;2022-07-30T07:24:41;101429.00;;;22.47;100.00
10510;BME280;5303;53.266;10.410;2022-07-30T07:27:07;101416.47;;;22.56;100.00
10510;BME280;5303;53.266;10.410;2022-07-30T07:29:32;101422.53;;;22.65;100.00
10510;BME280;5303;53.266;10.410;2022-07-30T07:31:57;101429.44;;;22.74;100.00
10510;BME280;5303;53.266;10.410;2022-07-30T07:34:23;101423.63;;;22.75;100.00
10510;BME280;5303;53.266;10.410;2022-07-30T07:36:48;101426.75;;;22.79;100.00
10510;BME280;5303;53.266;10.410;2022-07-30T07:39:13;101428.69;;;22.78;100.00
10510;BME280;5303;53.266;10.410;2022-07-30T07:41:39;101424.25;;;22.77;100.00
10510;BME280;5303;53.266;10.410;2022-07-30T07:44:04;101418.19;;;22.81;100.00
10510;BME280;5303;53.266;10.410;2022-07-30T07:46:30;101415.66;;;22.79;100.00
10510;BME280;5303;53.266;10.410;2022-07-30T07:48:56;101423.03;;;22.85;100.00
10510;BME280;5303;53.266;10.410;2022-07-30T07:51:21;101428.09;;;22.88;100.00
10510;BME280;5303;53.266;10.410;2022-07-30T07:53:46;101425.09;;;22.90;100.00
10510;BME280;5303;53.266;10.410;2022-07-30T07:56:12;101424.47;;;22.88;100.00
10510;BME280;5303;53.266;10.410;2022-07-30T07:58:38;101424.75;;;22.86;100.00
10510;BME280;5303;53.266;10.410;2022-07-30T08:01:03;101430.41;;;22.79;100.00
10510;BME280;5303;53.266;10.410;2022-07-30T08:03:29;101433.66;;;22.76;100.00
10510;BME280;5303;53.266;10.410;2022-07-30T08:05:54;101440.50;;;22.62;100.00
10510;BME280;5303;53.266;10.410;2022-07-30T08:08:20;101437.47;;;22.52;100.00
10510;BME280;5303;53.266;10.410;2022-07-30T08:10:45;101435.69;;;22.69;100.00
10510;BME280;5303;53.266;10.410;2022-07-30T08:13:10;101439.44;;;22.75;100.00
10510;BME280;5303;53.266;10.410;2022-07-30T08:15:36;101440.75;;;22.72;100.00
10510;BME280;5303;53.266;10.410;2022-07-30T08:18:01;101444.88;;;22.70;100.00
10510;BME280;5303;53.266;10.410;2022-07-30T08:20:27;101437.44;;;22.94;100.00
10510;BME280;5303;53.266;10.410;2022-07-30T08:22:52;101423.31;;;23.07;100.00
10510;BME280;5303;53.266;10.410;2022-07-30T08:25:17;101438.91;;;23.08;100.00
10510;BME280;5303;53.266;10.410;2022-07-30T08:27:45;101433.56;;;22.95;100.00
10510;BME280;5303;53.266;10.410;2022-07-30T08:30:10;101433.94;;;23.10;100.00
10510;BME280;5303;53.266;10.410;2022-07-30T08:32:36;101432.50;;;23.08;100.00
10510;BME280;5303;53.266;10.410;2022-07-30T08:35:02;101427.41;;;23.05;100.00
10510;BME280;5303;53.266;10.410;2022-07-30T08:37:28;101436.03;;;23.15;100.00
10510;BME280;5303;53.266;10.410;2022-07-30T08:39:53;101432.25;;;23.33;100.00
10510;BME280;5303;53.266;10.410;2022-07-30T08:42:19;101423.41;;;23.36;100.00
10510;BME280;5303;53.266;10.410;2022-07-30T08:44:45;101430.44;;;23.27;100.00
10510;BME280;5303;53.266;10.410;2022-07-30T08:47:15;101433.34;;;23.20;100.00
10510;BME280;5303;53.266;10.410;2022-07-30T08:49:41;101433.72;;;23.12;100.00
10510;BME280;5303;53.266;10.410;2022-07-30T08:52:07;101429.50;;;23.09;100.00
10510;BME280;5303;53.266;10.410;2022-07-30T08:54:33;101431.66;;;23.19;100.00
10510;BME280;5303;53.266;10.410;2022-07-30T08:56:59;101436.13;;;23.32;100.00
10510;BME280;5303;53.266;10.410;2022-07-30T08:59:25;101433.91;;;23.34;100.00
10510;BME280;5303;53.266;10.410;2022-07-30T09:01:50;101437.31;;;23.47;100.00
10510;BME280;5303;53.266;10.410;2022-07-30T09:04:16;101433.91;;;23.57;100.00
10510;BME280;5303;53.266;10.410;2022-07-30T09:06:41;101435.72;;;23.63;99.33
10510;BME280;5303;53.266;10.410;2022-07-30T09:09:07;101438.84;;;23.67;98.49
10510;BME280;5303;53.266;10.410;2022-07-30T09:11:33;101440.81;;;23.55;98.41
10510;BME280;5303;53.266;10.410;2022-07-30T09:14:10;101444.91;;;23.64;97.46
10510;BME280;5303;53.266;10.410;2022-07-30T09:16:37;101435.59;;;23.70;97.75
10510;BME280;5303;53.266;10.410;2022-07-30T09:19:17;101443.81;;;23.77;99.27
10510;BME280;5303;53.266;10.410;2022-07-30T09:21:54;101438.94;;;23.84;97.41
10510;BME280;5303;53.266;10.410;2022-07-30T09:24:19;101440.28;;;23.81;95.76
10510;BME280;5303;53.266;10.410;2022-07-30T09:26:58;101447.16;;;23.90;93.66
10510;BME280;5303;53.266;10.410;2022-07-30T09:29:29;101450.03;;;23.96;90.87
10510;BME280;5303;53.266;10.410;2022-07-30T09:32:04;101444.84;;;23.87;92.16
10510;BME280;5303;53.266;10.410;2022-07-30T09:34:33;101438.81;;;23.79;93.67
10510;BME280;5303;53.266;10.410;2022-07-30T09:37:00;101442.88;;;23.36;97.42
10510;BME280;5303;53.266;10.410;2022-07-30T09:39:39;101448.19;;;23.73;96.17
10510;BME280;5303;53.266;10.410;2022-07-30T09:42:19;101444.03;;;23.75;93.50
10510;BME280;5303;53.266;10.410;2022-07-30T09:44:46;101446.19;;;23.85;94.39
10510;BME280;5303;53.266;10.410;2022-07-30T09:47:34;101448.13;;;23.84;97.64
10510;BME280;5303;53.266;10.410;2022-07-30T09:50:03;101441.59;;;23.90;95.09
10510;BME280;5303;53.266;10.410;2022-07-30T09:52:28;101450.56;;;23.81;97.07
10510;BME280;5303;53.266;10.410;2022-07-30T09:54:54;101453.13;;;23.70;97.81
10510;BME280;5303;53.266;10.410;2022-07-30T09:57:19;101451.78;;;23.61;95.72
10510;BME280;5303;53.266;10.410;2022-07-30T09:59:44;101455.81;;;23.54;94.94
10510;BME280;5303;53.266;10.410;2022-07-30T10:02:10;101444.41;;;23.67;95.75
10510;BME280;5303;53.266;10.410;2022-07-30T10:04:36;101456.53;;;23.73;94.16
10510;BME280;5303;53.266;10.410;2022-07-30T10:07:01;101444.53;;;23.72;95.54
10510;BME280;5303;53.266;10.410;2022-07-30T10:09:34;101449.72;;;23.80;97.40
10510;BME280;5303;53.266;10.410;2022-07-30T10:12:01;101457.28;;;23.97;97.04
10510;BME280;5303;53.266;10.410;2022-07-30T10:14:30;101443.88;;;23.93;96.60
10510;BME280;5303;53.266;10.410;2022-07-30T10:16:57;101449.41;;;24.05;95.63
10510;BME280;5303;53.266;10.410;2022-07-30T10:19:23;101446.47;;;24.12;96.75
10510;BME280;5303;53.266;10.410;2022-07-30T10:21:49;101447.00;;;24.26;95.09
10510;BME280;5303;53.266;10.410;2022-07-30T10:24:16;101447.81;;;24.38;94.52
10510;BME280;5303;53.266;10.410;2022-07-30T10:26:43;101454.63;;;24.30;89.78
10510;BME280;5303;53.266;10.410;2022-07-30T10:29:08;101452.25;;;24.39;90.21
10510;BME280;5303;53.266;10.410;2022-07-30T10:31:34;101448.19;;;24.42;88.47
10510;BME280;5303;53.266;10.410;2022-07-30T10:33:59;101444.38;;;24.48;90.07
10510;BME280;5303;53.266;10.410;2022-07-30T10:36:25;101444.41;;;24.64;86.83
10510;BME280;5303;53.266;10.410;2022-07-30T10:38:51;101445.63;;;24.40;89.46
10510;BME280;5303;53.266;10.410;2022-07-30T10:41:46;101442.59;;;24.42;88.47
10510;BME280;5303;53.266;10.410;2022-07-30T10:47:04;101446.81;;;24.15;88.08
10510;BME280;5303;53.266;10.410;2022-07-30T10:49:31;101448.25;;;24.18;87.75
10510;BME280;5303;53.266;10.410;2022-07-30T10:51:56;101444.50;;;24.24;84.97
10510;BME280;5303;53.266;10.410;2022-07-30T10:54:42;101443.84;;;24.34;78.74
10510;BME280;5303;53.266;10.410;2022-07-30T10:57:19;101443.91;;;24.39;77.69
10510;BME280;5303;53.266;10.410;2022-07-30T11:02:13;101443.56;;;24.64;78.70
10510;BME280;5303;53.266;10.410;2022-07-30T11:04:38;101441.34;;;24.49;78.36
10510;BME280;5303;53.266;10.410;2022-07-30T11:09:56;101439.28;;;24.73;77.05
10510;BME280;5303;53.266;10.410;2022-07-30T11:15:09;101431.25;;;24.77;74.26
10510;BME280;5303;53.266;10.410;2022-07-30T11:20:23;101433.53;;;24.80;72.09
10510;BME280;5303;53.266;10.410;2022-07-30T11:22:48;101428.63;;;24.87;72.24
10510;BME280;5303;53.266;10.410;2022-07-30T11:27:51;101420.44;;;25.14;69.85
10510;BME280;5303;53.266;10.410;2022-07-30T11:32:46;101422.38;;;24.97;67.33
10510;BME280;5303;53.266;10.410;2022-07-30T11:41:07;101423.53;;;25.35;66.10
10510;BME280;5303;53.266;10.410;2022-07-30T11:43:33;101420.13;;;25.32;65.25
10510;BME280;5303;53.266;10.410;2022-07-30T11:46:18;101420.78;;;25.18;64.46
10510;BME280;5303;53.266;10.410;2022-07-30T11:48:59;101415.47;;;25.38;65.00
10510;BME280;5303;53.266;10.410;2022-07-30T11:51:26;101413.34;;;25.45;64.18
10510;BME280;5303;53.266;10.410;2022-07-30T11:54:18;101424.72;;;25.61;71.96
10510;BME280;5303;53.266;10.410;2022-07-30T11:56:54;101410.84;;;25.66;73.21
10510;BME280;5303;53.266;10.410;2022-07-30T11:59:21;101409.59;;;25.78;72.21
10510;BME280;5303;53.266;10.410;2022-07-30T12:01:53;101411.28;;;25.79;70.71
10510;BME280;5303;53.266;10.410;2022-07-30T12:04:24;101420.91;;;25.89;71.38
10510;BME280;5303;53.266;10.410;2022-07-30T12:06:49;101411.75;;;25.93;70.39
10510;BME280;5303;53.266;10.410;2022-07-30T12:09:22;101411.22;;;25.96;70.94
10510;BME280;5303;53.266;10.410;2022-07-30T12:11:48;101405.75;;;26.07;69.08
10510;BME280;5303;53.266;10.410;2022-07-30T12:14:13;101411.31;;;26.07;69.25
10510;BME280;5303;53.266;10.410;2022-07-30T12:16:38;101408.38;;;26.18;68.50
10510;BME280;5303;53.266;10.410;2022-07-30T12:19:06;101416.22;;;26.16;68.98
10510;BME280;5303;53.266;10.410;2022-07-30T12:21:32;101411.28;;;26.29;67.42
10510;BME280;5303;53.266;10.410;2022-07-30T12:23:59;101408.81;;;26.32;66.73
10510;BME280;5303;53.266;10.410;2022-07-30T12:26:27;101410.75;;;26.32;66.58
10510;BME280;5303;53.266;10.410;2022-07-30T12:28:55;101413.91;;;26.40;67.67
10510;BME280;5303;53.266;10.410;2022-07-30T12:31:21;101408.28;;;26.35;66.52
10510;BME280;5303;53.266;10.410;2022-07-30T12:33:46;101405.00;;;26.43;66.67
10510;BME280;5303;53.266;10.410;2022-07-30T12:36:24;101408.63;;;26.39;65.43
10510;BME280;5303;53.266;10.410;2022-07-30T12:38:50;101412.56;;;26.43;65.40
10510;BME280;5303;53.266;10.410;2022-07-30T12:41:16;101402.31;;;26.48;64.77
10510;BME280;5303;53.266;10.410;2022-07-30T12:43:52;101394.97;;;26.42;64.70
10510;BME280;5303;53.266;10.410;2022-07-30T12:46:20;101391.50;;;26.35;65.44
10510;BME280;5303;53.266;10.410;2022-07-30T12:48:58;101389.53;;;26.31;66.16
10510;BME280;5303;53.266;10.410;2022-07-30T12:51:29;101393.84;;;26.43;65.86
10510;BME280;5303;53.266;10.410;2022-07-30T12:53:57;101386.59;;;26.47;66.77
10510;BME280;5303;53.266;10.410;2022-07-30T12:56:28;101388.84;;;26.45;64.67
10510;BME280;5303;53.266;10.410;2022-07-30T12:58:56;101389.53;;;26.31;65.20
10510;BME280;5303;53.266;10.410;2022-07-30T13:01:41;101375.56;;;26.31;65.54
10510;BME280;5303;53.266;10.410;2022-07-30T13:04:08;101370.13;;;26.19;66.37
10510;BME280;5303;53.266;10.410;2022-07-30T13:06:33;101375.50;;;26.25;66.47
10510;BME280;5303;53.266;10.410;2022-07-30T13:08:59;101366.56;;;26.23;65.87